Cornish, Utah
Current Conditions -  °F | °C
As of 8:51 PM on Sunday 23 Nov 2014 (Local Time) from KLGU Reporting Station
Overcast Overcast  
Wind Chill: 35°   Ceiling: 6500
Heat Index: 35°   Visibility: 10mi
Dew Point: 24°   Wind: 0mph
Humidity: 64%   Direction: NA
Pressure: 30.19"   Gusts: NA
Location:  41.98°N, 111.95°W
Report Text: KLGU 240351Z AUTO 00000KT 10SM OVC065 02/M04 A3019 RMK AO2 SLP236 T00171044
Loading
Personal Weather Stations






























Interactive Weather Map New forecast layout! Learn more

10-Day Weather Forecast

Advertisements
Track Severe Weather on mobile